Time;durP1;ratioP1;P1;durP2;ratioP2;P2;SDS_P1;SDS_P2;PMS_P1;PMS_P2;Temp;Humidity;BMP_temperature;BMP_pressure;BME280_temperature;BME280_humidity;BME280_pressure;Samples;Min_cycle;Max_cycle;Signal;HPM_P1;HPM_P2
2022/11/18 00:01:27;;;;;;;17.32;13.15;;;;;;;3.58;98.03;98287.39;1618063;88;21206;-83
2022/11/18 00:04:34;;;;;;;30.72;20.25;;;;;;;3.48;95.99;98293.52;1618081;88;21202;-77
2022/11/18 00:07:39;;;;;;;27.02;19.02;;;;;;;3.42;95.75;98302.36;1619010;87;21191;-77
2022/11/18 00:10:45;;;;;;;27.82;19.02;;;;;;;3.37;95.37;98322.33;1619101;88;21248;-77
2022/11/18 00:17:16;;;;;;;28.00;18.50;;;;;;;3.30;94.30;98363.59;1618888;87;21234;-83
2022/11/18 00:20:20;;;;;;;21.25;17.20;;;;;;;3.17;92.97;98363.31;1619227;88;21163;-81
2022/11/18 00:23:27;;;;;;;21.02;16.80;;;;;;;3.24;93.44;98372.38;1618903;87;21183;-77
2022/11/18 00:26:34;;;;;;;20.17;15.88;;;;;;;2.98;93.36;98371.84;1619090;88;21227;-77
2022/11/18 00:29:40;;;;;;;20.97;16.77;;;;;;;2.87;93.03;98397.86;1618264;88;21187;-84
2022/11/18 00:32:46;;;;;;;24.47;18.90;;;;;;;2.42;94.36;98406.92;1618691;87;21783;-78
2022/11/18 00:35:52;;;;;;;24.20;18.80;;;;;;;2.10;96.30;98417.22;1619173;88;21219;-83
2022/11/18 00:38:58;;;;;;;25.95;19.25;;;;;;;2.26;95.64;98421.79;1617442;87;21199;-77
2022/11/18 00:45:29;;;;;;;29.12;22.73;;;;;;;1.90;96.76;98438.28;1619217;88;21198;-76
2022/11/18 00:48:34;;;;;;;26.17;19.17;;;;;;;1.70;96.17;98431.52;1619341;87;21848;-83
2022/11/18 00:51:40;;;;;;;27.73;20.97;;;;;;;1.97;95.98;98440.63;1619212;87;21711;-77
2022/11/18 00:54:46;;;;;;;28.40;20.62;;;;;;;1.48;96.43;98451.84;1619038;88;21637;-77
2022/11/18 00:57:54;;;;;;;26.15;20.75;;;;;;;1.18;98.13;98454.60;1618564;87;21794;-83
2022/11/18 01:01:00;;;;;;;29.95;20.68;;;;;;;1.87;96.55;98462.03;1619134;88;21724;-83
2022/11/18 01:03:52;;;;;;;31.62;22.25;;;;;;;1.95;95.11;98470.14;1618163;87;21731;-77
2022/11/18 01:06:58;;;;;;;30.02;23.02;;;;;;;1.79;92.35;98466.41;1619074;87;21785;-84
2022/11/18 01:10:04;;;;;;;30.25;21.77;;;;;;;1.10;97.25;98467.52;1599373;88;21258;-78
2022/11/18 01:13:22;;;;;;;28.62;22.42;;;;;;;1.08;97.96;98460.08;1618459;87;21230;-78
2022/11/18 01:16:31;;;;;;;27.77;21.80;;;;;;;1.30;97.59;98460.02;1617989;88;21175;-83
2022/11/18 01:19:37;;;;;;;32.80;22.67;;;;;;;1.51;98.24;98460.95;1619085;88;21229;-78
2022/11/18 01:22:43;;;;;;;28.50;20.57;;;;;;;1.00;99.51;98468.98;1618682;87;21214;-83
2022/11/18 01:25:49;;;;;;;31.57;23.60;;;;;;;1.65;100.00;98458.97;1619112;88;21175;-78
2022/11/18 01:28:56;;;;;;;28.07;20.32;;;;;;;2.04;95.80;98457.00;1618955;87;21237;-78
2022/11/18 01:32:01;;;;;;;31.37;22.17;;;;;;;1.77;94.70;98453.59;1618983;87;21210;-77
2022/11/18 01:35:09;;;;;;;31.57;22.42;;;;;;;0.44;99.39;98458.71;1618509;88;21735;-78
2022/11/18 01:38:17;;;;;;;32.48;22.73;;;;;;;0.39;100.00;98465.06;1617952;87;21317;-78
2022/11/18 01:41:23;;;;;;;32.42;23.38;;;;;;;0.18;100.00;98465.39;1617987;88;21194;-84
2022/11/18 01:45:03;;;;;;;33.55;23.55;;;;;;;0.42;100.00;98473.64;1619076;88;21243;-84
2022/11/18 01:48:38;;;;;;;32.20;23.20;;;;;;;0.86;100.00;98476.31;1618396;87;21246;-83
2022/11/18 01:51:58;;;;;;;36.93;24.37;;;;;;;0.63;100.00;98482.72;1619087;87;21219;-77
2022/11/18 01:55:03;;;;;;;32.45;23.05;;;;;;;1.14;97.30;98490.43;1618426;88;21523;-77
2022/11/18 01:58:17;;;;;;;30.90;22.90;;;;;;;1.18;96.59;98503.92;1619359;87;21214;-83
2022/11/18 02:01:22;;;;;;;33.75;24.77;;;;;;;1.04;96.73;98507.72;1618455;88;21726;-78
2022/11/18 02:04:29;;;;;;;32.85;23.05;;;;;;;1.02;96.58;98515.93;1619093;88;21766;-78
2022/11/18 02:07:36;;;;;;;31.73;21.75;;;;;;;1.42;94.92;98534.17;1618717;87;21282;-79
2022/11/18 02:10:42;;;;;;;34.15;23.92;;;;;;;1.52;93.85;98540.78;1617995;88;21259;-84
2022/11/18 02:13:48;;;;;;;33.05;23.30;;;;;;;1.42;93.70;98539.55;1617985;87;21739;-84
2022/11/18 02:17:21;;;;;;;30.52;22.10;;;;;;;1.50;93.42;98557.59;1619195;87;21162;-79
2022/11/18 02:20:36;;;;;;;36.77;25.08;;;;;;;1.49;93.32;98561.30;1614480;88;21244;-78
2022/11/18 02:24:03;;;;;;;30.27;21.05;;;;;;;1.66;92.49;98566.27;1618131;87;21214;-79
2022/11/18 02:27:15;;;;;;;34.75;24.77;;;;;;;1.79;91.71;98574.25;1618962;87;21212;-83
2022/11/18 02:30:22;;;;;;;35.45;23.62;;;;;;;1.52;91.72;98583.89;1615747;88;21210;-77
2022/11/18 02:33:31;;;;;;;32.33;23.38;;;;;;;1.43;91.85;98594.28;1615613;87;21281;-83
2022/11/18 02:36:45;;;;;;;31.87;23.57;;;;;;;1.48;91.47;98605.42;1616612;87;21344;-84
2022/11/18 02:39:56;;;;;;;35.15;24.72;;;;;;;1.43;91.19;98626.61;1616330;89;21593;-79
2022/11/18 02:43:34;;;;;;;32.90;24.98;;;;;;;1.51;90.80;98645.03;1615385;87;21245;-85
2022/11/18 02:46:41;;;;;;;35.10;24.92;;;;;;;1.51;90.30;98671.13;1611680;87;21260;-83
2022/11/18 02:49:53;;;;;;;32.88;23.85;;;;;;;1.64;90.37;98685.00;1617683;89;21770;-78
2022/11/18 02:53:01;;;;;;;32.15;22.20;;;;;;;1.26;90.44;98690.30;1617129;87;21306;-84
2022/11/18 02:56:06;;;;;;;34.48;24.05;;;;;;;1.21;92.14;98708.78;1617797;89;21269;-84
2022/11/18 02:59:06;;;;;;;27.35;17.92;;;;;;;1.48;90.67;98707.31;1618005;89;21238;-80
2022/11/18 03:02:11;;;;;;;32.10;22.58;;;;;;;1.61;89.50;98711.45;1616743;87;21236;-83
2022/11/18 03:05:34;;;;;;;39.88;25.65;;;;;;;0.92;92.71;98718.45;1617764;89;21269;-77
2022/11/18 03:08:45;;;;;;;37.28;24.67;;;;;;;1.01;92.37;98714.34;1616883;87;21846;-77
2022/11/18 03:12:14;;;;;;;44.15;27.75;;;;;;;1.14;91.58;98712.61;1616655;87;21245;-84
2022/11/18 03:15:31;;;;;;;32.27;22.10;;;;;;;0.99;92.10;98714.16;1618149;89;21773;-77
2022/11/18 03:18:47;;;;;;;36.75;23.87;;;;;;;1.11;91.89;98729.06;1616627;87;22003;-84
2022/11/18 03:22:12;;;;;;;32.85;23.32;;;;;;;1.15;91.26;98731.80;1616904;87;21212;-85
2022/11/18 03:25:44;;;;;;;31.10;23.02;;;;;;;1.08;90.77;98723.14;1617750;89;21241;-83
2022/11/18 03:29:12;;;;;;;35.43;25.62;;;;;;;1.09;90.29;98704.16;1560922;90;21280;-79
2022/11/18 03:32:25;;;;;;;39.25;26.35;;;;;;;1.03;90.79;98723.59;1616661;87;21252;-83
2022/11/18 03:35:33;;;;;;;33.42;22.87;;;;;;;0.99;90.86;98726.28;1617849;89;21193;-82
2022/11/18 03:38:35;;;;;;;41.55;26.23;;;;;;;1.21;90.20;98750.53;1617782;87;21259;-83
2022/11/18 03:41:44;;;;;;;34.88;23.92;;;;;;;0.98;91.36;98762.26;1617872;87;21270;-77
2022/11/18 03:44:54;;;;;;;40.50;24.80;;;;;;;1.00;91.49;98769.20;1621321;88;21185;-82
2022/11/18 03:48:13;;;;;;;40.28;25.25;;;;;;;0.76;89.97;98783.25;1620474;87;21642;-77
2022/11/18 03:51:15;;;;;;;38.05;25.30;;;;;;;1.19;90.37;98770.05;1620695;88;21554;-83
2022/11/18 03:54:07;;;;;;;39.08;26.85;;;;;;;1.23;89.88;98753.93;1620881;88;21252;-82
2022/11/18 03:57:10;;;;;;;33.90;24.02;;;;;;;1.49;88.53;98776.36;1620266;87;21225;-77
2022/11/18 04:00:01;;;;;;;40.08;26.12;;;;;;;1.69;87.75;98794.53;1619634;88;21277;-82
2022/11/18 04:02:55;;;;;;;34.90;24.43;;;;;;;1.75;86.81;98796.63;1621115;87;21765;-83
2022/11/18 04:05:43;;;;;;;36.08;24.57;;;;;;;1.74;87.01;98815.63;1620971;88;21209;-77
2022/11/18 04:08:40;;;;;;;34.88;22.60;;;;;;;1.67;86.79;98825.36;1620244;87;21248;-77
2022/11/18 04:14:54;;;;;;;35.78;23.83;;;;;;;1.74;86.33;98840.77;1621354;88;21217;-83
2022/11/18 04:17:59;;;;;;;33.80;23.25;;;;;;;1.89;85.45;98826.73;1604003;88;21268;-83
2022/11/18 04:21:05;;;;;;;33.92;23.40;;;;;;;1.78;85.72;98834.03;1620950;88;21239;-77
2022/11/18 07:43:12;;;;;;;25.62;19.42;;;;;;;0.48;96.05;99202.13;1775960;79;28253;-83
2022/11/18 07:46:28;;;;;;;27.52;21.23;;;;;;;0.76;95.34;99200.46;1747938;80;21727;-85
2022/11/18 07:49:34;;;;;;;28.40;21.00;;;;;;;0.65;94.75;99207.30;1743198;81;21172;-83
2022/11/18 07:52:40;;;;;;;25.45;18.30;;;;;;;0.62;94.97;99218.87;1742096;81;21581;-83
2022/11/18 07:55:51;;;;;;;22.10;17.07;;;;;;;0.80;94.73;99221.23;1743365;81;21286;-84
2022/11/18 07:58:54;;;;;;;27.30;19.00;;;;;;;0.99;93.69;99221.73;1743755;81;21551;-83
2022/11/18 08:02:00;;;;;;;28.40;20.12;;;;;;;1.05;92.89;99217.61;1742079;81;21216;-84
2022/11/18 08:05:05;;;;;;;26.42;16.32;;;;;;;1.02;92.86;99232.20;1746634;81;21257;-84
2022/11/18 08:08:13;;;;;;;26.35;17.48;;;;;;;1.05;92.87;99241.84;1733372;80;21192;-83
2022/11/18 08:11:22;;;;;;;29.05;20.95;;;;;;;1.18;92.57;99251.84;1746793;80;21291;-77
2022/11/18 08:14:29;;;;;;;31.57;19.52;;;;;;;1.19;92.00;99275.94;1742636;80;21689;-77
2022/11/18 08:17:36;;;;;;;25.27;18.65;;;;;;;1.28;91.43;99297.98;1752446;80;21200;-78
2022/11/18 08:20:43;;;;;;;27.48;20.65;;;;;;;1.30;91.52;99283.52;1755057;81;21186;-78
2022/11/18 08:23:50;;;;;;;29.52;21.52;;;;;;;1.34;91.47;99282.23;1735000;81;21161;-78
2022/11/18 08:26:55;;;;;;;29.57;20.57;;;;;;;1.34;91.54;99291.17;1703575;83;21198;-77
2022/11/18 08:30:00;;;;;;;28.52;21.07;;;;;;;1.41;91.53;99305.80;1755110;81;21143;-77
2022/11/18 08:33:05;;;;;;;30.55;23.00;;;;;;;1.42;91.64;99308.83;1747233;81;21718;-77
2022/11/18 08:36:21;;;;;;;33.08;23.65;;;;;;;1.44;91.75;99290.66;1742094;81;21211;-78
2022/11/18 08:39:27;;;;;;;33.02;23.55;;;;;;;1.45;91.96;99296.91;1735388;81;21202;-78
2022/11/18 08:42:33;;;;;;;32.85;23.35;;;;;;;1.50;91.83;99308.09;1747353;81;21732;-84
2022/11/18 08:45:39;;;;;;;32.08;23.15;;;;;;;1.66;91.38;99312.93;1744182;82;21505;-84
2022/11/18 08:48:46;;;;;;;31.55;23.35;;;;;;;1.67;91.17;99313.27;1747887;82;21162;-83
2022/11/18 08:51:51;;;;;;;30.12;22.32;;;;;;;1.82;90.24;99309.63;1759058;80;21272;-84
2022/11/18 08:54:57;;;;;;;39.03;27.37;;;;;;;1.87;89.25;99312.23;1738004;82;21147;-83
2022/11/18 08:58:04;;;;;;;63.60;50.08;;;;;;;1.70;89.43;99316.54;1753654;81;21166;-84
2022/11/18 09:01:13;;;;;;;126.40;107.30;;;;;;;1.62;90.61;99323.64;1743514;82;21794;-84
2022/11/18 09:04:18;;;;;;;49.63;33.65;;;;;;;1.69;90.87;99326.95;1742569;82;21650;-84
2022/11/18 09:07:25;;;;;;;33.30;24.98;;;;;;;1.81;90.84;99312.83;1742284;82;21464;-83
2022/11/18 09:10:33;;;;;;;32.95;23.35;;;;;;;1.85;90.92;99314.74;1741454;82;21723;-84
2022/11/18 09:13:38;;;;;;;33.55;22.32;;;;;;;1.96;90.70;99318.61;1740150;82;21165;-84
2022/11/18 09:16:45;;;;;;;28.30;21.12;;;;;;;2.09;89.95;99332.64;1736208;82;21154;-84
2022/11/18 09:19:51;;;;;;;28.55;22.13;;;;;;;2.27;89.85;99331.38;1739890;82;21748;-84
2022/11/18 09:22:56;;;;;;;26.90;19.32;;;;;;;2.36;89.27;99336.40;1734035;82;21165;-84
2022/11/18 09:26:13;;;;;;;25.27;19.32;;;;;;;2.36;89.02;99352.59;1732185;82;21172;-84
2022/11/18 09:29:24;;;;;;;29.20;21.62;;;;;;;2.40;88.50;99375.09;1738027;82;21735;-84
2022/11/18 09:32:26;;;;;;;27.30;19.37;;;;;;;2.19;88.12;99389.27;1743668;82;21186;-84
2022/11/18 09:35:32;;;;;;;24.87;18.98;;;;;;;2.06;88.86;99400.36;1744792;82;21158;-83
2022/11/18 09:38:43;;;;;;;27.35;20.35;;;;;;;2.01;88.74;99408.03;1754225;82;21185;-84
2022/11/18 09:41:59;;;;;;;21.30;15.18;;;;;;;1.97;88.50;99411.51;1743269;82;21251;-83
2022/11/18 09:45:24;;;;;;;30.05;20.75;;;;;;;1.96;88.83;99413.01;1731982;82;21175;-78
2022/11/18 09:51:56;;;;;;;25.77;19.52;;;;;;;1.94;88.82;99413.66;1727934;82;21213;-78
2022/11/18 09:55:02;;;;;;;26.68;19.32;;;;;;;1.88;88.84;99420.45;1736154;82;21778;-78
2022/11/18 09:58:08;;;;;;;24.00;16.37;;;;;;;1.89;88.74;99435.66;1736279;82;21218;-78
2022/11/18 10:01:23;;;;;;;29.15;21.55;;;;;;;1.86;89.06;99432.39;1728164;82;21179;-78
2022/11/18 10:04:29;;;;;;;24.98;19.48;;;;;;;2.03;89.58;99431.19;1724484;83;21179;-78
2022/11/18 10:07:51;;;;;;;27.27;20.57;;;;;;;2.02;89.19;99428.61;1724522;83;21242;-78
2022/11/18 10:11:25;;;;;;;27.45;18.98;;;;;;;1.97;89.43;99447.07;1724933;82;21760;-77
2022/11/18 10:15:00;;;;;;;26.30;19.17;;;;;;;1.98;89.58;99458.23;1742583;82;21200;-79
2022/11/18 10:18:40;;;;;;;28.92;20.08;;;;;;;1.98;89.88;99451.00;1767580;80;21214;-84
2022/11/18 10:22:03;;;;;;;29.95;21.20;;;;;;;1.83;90.15;99452.39;1771368;81;21200;-84
2022/11/18 10:25:10;;;;;;;29.40;21.35;;;;;;;1.88;90.48;99457.36;1746681;81;21166;-84
2022/11/18 10:28:31;;;;;;;27.77;21.55;;;;;;;2.08;90.60;99459.58;1732298;83;21817;-78
2022/11/18 10:31:37;;;;;;;34.40;24.35;;;;;;;1.98;90.56;99473.08;1750859;81;21180;-78
2022/11/18 10:34:44;;;;;;;33.28;24.67;;;;;;;1.92;90.60;99463.67;1757509;81;21640;-84
2022/11/18 10:37:49;;;;;;;27.82;21.05;;;;;;;2.03;90.91;99457.31;1758277;81;21248;-83
2022/11/18 10:41:02;;;;;;;37.40;24.95;;;;;;;2.22;90.22;99459.99;1780358;79;21147;-84
2022/11/18 10:43:58;;;;;;;38.25;24.67;;;;;;;2.13;90.26;99460.85;1742558;82;21200;-78
2022/11/18 10:47:34;;;;;;;37.08;25.10;;;;;;;2.07;90.46;99451.98;1781055;80;21783;-84
2022/11/18 10:50:48;;;;;;;32.70;26.05;;;;;;;2.08;90.66;99448.80;1756724;81;21737;-79
2022/11/18 10:53:53;;;;;;;36.58;25.10;;;;;;;2.23;90.17;99458.98;1768283;80;21697;-84
2022/11/18 10:57:04;;;;;;;34.13;24.43;;;;;;;2.39;90.17;99460.23;1724870;83;21225;-84
2022/11/18 11:00:08;;;;;;;;;;;;;;;2.21;90.10;99462.34;1759035;80;21146;-78
2022/11/18 11:03:35;;;;;;;37.42;27.00;;;;;;;2.26;90.23;99461.41;1725021;83;20202;-84
2022/11/18 11:06:44;;;;;;;;;;;;;;;2.24;90.48;99463.38;1756534;80;21192;-78
2022/11/18 11:09:49;;;;;;;47.70;29.63;;;;;;;2.40;90.87;99464.63;1743050;82;20201;-84
2022/11/18 11:13:05;;;;;;;48.73;29.10;;;;;;;2.53;90.54;99478.68;1748721;82;21176;-84
2022/11/18 11:16:11;;;;;;;39.40;26.48;;;;;;;2.37;90.91;99482.48;1748926;82;21156;-78
2022/11/18 11:19:19;;;;;;;39.40;27.20;;;;;;;2.28;91.37;99484.19;1748787;82;21192;-79
2022/11/18 11:22:25;;;;;;;50.15;28.10;;;;;;;2.48;90.26;99485.86;1748689;82;21773;-79
2022/11/18 11:25:48;;;;;;;36.33;24.37;;;;;;;2.44;90.47;99487.64;1748752;82;21165;-79
2022/11/18 11:29:23;;;;;;;40.88;27.17;;;;;;;2.40;90.14;99488.92;1750928;81;21162;-78
2022/11/18 11:32:55;;;;;;;38.48;26.05;;;;;;;2.34;90.26;99495.75;1749231;81;21144;-79
2022/11/18 11:36:27;;;;;;;38.00;25.17;;;;;;;2.47;90.29;99493.61;1754278;81;21190;-78
2022/11/18 11:39:46;;;;;;;30.88;21.93;;;;;;;2.43;90.46;99495.39;1735169;81;21144;-84
2022/11/18 11:43:22;;;;;;;31.00;22.22;;;;;;;2.29;90.68;99516.42;1749068;81;21193;-84
2022/11/18 11:50:57;;;;;;;29.35;21.50;;;;;;;2.24;91.42;99514.66;1753029;81;21149;-78
2022/11/18 11:54:34;;;;;;;31.25;22.58;;;;;;;2.24;91.90;99513.80;1744701;81;21769;-79
2022/11/18 11:58:12;;;;;;;37.63;23.77;;;;;;;2.27;91.73;99514.88;1730494;81;21189;-79
2022/11/18 12:01:42;;;;;;;30.20;22.65;;;;;;;2.34;91.66;99522.74;1754756;80;21203;-79
2022/11/18 12:05:04;;;;;;;35.03;21.50;;;;;;;2.47;91.85;99529.20;1754698;81;21180;-82
2022/11/18 12:08:24;;;;;;;24.57;19.55;;;;;;;2.88;90.63;99517.70;1771113;80;21152;-83
2022/11/18 12:12:33;;;;;;;31.33;22.95;;;;;;;2.83;89.87;99514.59;1749836;81;21219;-78
2022/11/18 12:15:52;;;;;;;27.65;20.50;;;;;;;2.77;89.96;99515.50;1723528;83;21780;-83
2022/11/18 12:19:14;;;;;;;30.83;21.63;;;;;;;2.57;91.14;99524.64;1756589;81;21150;-83
2022/11/18 12:22:20;;;;;;;32.38;22.75;;;;;;;2.63;91.32;99525.41;1756126;81;21627;-77
2022/11/18 12:25:55;;;;;;;31.73;23.85;;;;;;;2.87;91.04;99534.41;1757949;80;21525;-77
2022/11/18 12:29:01;;;;;;;29.95;21.37;;;;;;;3.00;90.57;99543.52;1743184;81;21136;-83
2022/11/18 12:32:06;;;;;;;35.40;22.58;;;;;;;2.75;90.80;99547.21;1780936;80;21155;-85
2022/11/18 12:35:17;;;;;;;;;;;;;;;2.67;90.83;99550.28;1744790;82;21172;-83
2022/11/18 12:38:38;;;;;;;33.15;22.02;;;;;;;2.80;90.99;99552.18;1747927;81;20210;-82
2022/11/18 12:45:52;;;;;;;34.27;23.75;;;;;;;2.87;90.31;99553.78;1718965;83;21779;-84
2022/11/18 12:48:58;;;;;;;30.30;22.37;;;;;;;2.84;90.26;99548.70;1718075;82;21185;-79
2022/11/18 12:52:14;;;;;;;24.45;19.90;;;;;;;2.69;90.94;99555.91;1730645;82;21187;-79
2022/11/18 12:55:33;;;;;;;26.25;20.35;;;;;;;2.67;90.97;99561.92;1748664;82;21725;-83
2022/11/18 12:58:39;;;;;;;31.65;22.58;;;;;;;2.74;90.94;99566.27;1735894;82;21156;-83
2022/11/18 13:01:45;;;;;;;29.75;22.82;;;;;;;3.00;90.83;99573.24;1730393;82;21160;-79
2022/11/18 13:04:51;;;;;;;28.87;20.95;;;;;;;3.26;88.76;99578.88;1728239;82;21160;-84
2022/11/18 13:08:19;;;;;;;29.05;22.15;;;;;;;3.36;88.32;99591.00;1719103;83;21196;-79
2022/11/18 16:28:05;;;;;;;47.78;32.50;;;;;;;1.77;100.00;99687.06;1743180;78;21211;-76
2022/11/18 16:32:10;;;;;;;46.10;31.75;;;;;;;1.82;100.00;99697.94;1740622;80;21248;-77
2022/11/18 16:54:51;;;;;;;55.15;30.20;;;;;;;1.39;100.00;99694.45;1716849;82;21247;-78
2022/11/18 16:57:58;;;;;;;49.67;28.92;;;;;;;1.33;100.00;99697.69;1745653;80;21297;-78
2022/11/18 17:01:04;;;;;;;52.98;33.48;;;;;;;1.43;100.00;99705.83;1762581;81;21812;-78
2022/11/18 17:04:11;;;;;;;56.98;36.35;;;;;;;1.57;100.00;99696.55;1746614;81;21188;-78
2022/11/18 17:07:17;;;;;;;66.85;37.42;;;;;;;1.51;100.00;99703.33;1746802;80;21205;-78
2022/11/18 17:10:24;;;;;;;60.17;36.08;;;;;;;1.47;100.00;99709.97;1753693;80;21241;-78
2022/11/18 17:13:31;;;;;;;56.13;33.23;;;;;;;1.65;100.00;99708.38;1758860;80;21194;-78
2022/11/18 17:16:37;;;;;;;64.47;36.80;;;;;;;1.65;100.00;99724.55;1748483;81;21248;-78
2022/11/18 17:19:43;;;;;;;64.07;37.10;;;;;;;1.68;100.00;99722.91;1759012;80;21163;-78
2022/11/18 17:22:49;;;;;;;66.60;37.30;;;;;;;1.68;100.00;99728.31;1746783;81;21816;-78
2022/11/18 17:25:54;;;;;;;67.97;39.40;;;;;;;1.65;100.00;99727.25;1743620;81;21216;-78
2022/11/18 17:29:04;;;;;;;86.82;46.08;;;;;;;1.76;100.00;99725.80;1734250;82;21191;-78
2022/11/18 17:32:09;;;;;;;112.80;52.88;;;;;;;1.67;100.00;99735.19;1752601;80;21193;-78
2022/11/18 17:35:17;;;;;;;117.82;58.28;;;;;;;1.67;100.00;99737.39;1784326;80;21804;-78
2022/11/18 17:38:23;;;;;;;166.95;80.55;;;;;;;1.70;100.00;99734.94;1752470;79;21177;-79
2022/11/18 17:44:54;;;;;;;147.75;72.58;;;;;;;1.79;100.00;99725.55;1769277;80;21160;-77
2022/11/18 17:48:00;;;;;;;112.37;57.80;;;;;;;1.76;100.00;99729.84;1764075;79;21717;-79
2022/11/18 17:51:12;;;;;;;113.22;58.87;;;;;;;1.76;100.00;99729.84;1764517;81;21224;-79
2022/11/18 17:54:17;;;;;;;104.80;53.28;;;;;;;1.74;100.00;99722.41;1748713;80;21718;-79
2022/11/18 17:57:23;;;;;;;89.47;50.88;;;;;;;1.79;100.00;99720.65;1768824;80;21246;-78
2022/11/18 18:00:30;;;;;;;75.40;43.08;;;;;;;1.67;100.00;99719.02;1760072;81;21209;-78
2022/11/18 18:03:37;;;;;;;64.10;40.50;;;;;;;1.76;100.00;99722.26;1751921;80;21757;-78
2022/11/18 18:06:41;;;;;;;67.78;45.00;;;;;;;1.92;100.00;99717.20;1751058;81;21646;-77
2022/11/18 18:09:47;;;;;;;75.32;50.78;;;;;;;2.13;100.00;99719.01;1746315;82;21250;-77
2022/11/18 18:16:22;;;;;;;101.05;79.50;;;;;;;2.10;100.00;99728.71;1733517;82;21211;-78
2022/11/18 18:19:29;;;;;;;68.95;49.33;;;;;;;2.05;100.00;99719.68;1743140;81;21204;-78
2022/11/18 18:22:35;;;;;;;48.98;32.42;;;;;;;1.87;100.00;99727.55;1759911;81;21223;-77
2022/11/18 18:25:41;;;;;;;47.62;34.58;;;;;;;2.20;100.00;99727.75;1759370;81;21227;-77
2022/11/18 18:28:47;;;;;;;48.50;36.30;;;;;;;2.18;100.00;99705.95;1757035;81;21180;-78
2022/11/18 18:31:53;;;;;;;77.60;54.75;;;;;;;2.02;100.00;99711.84;1758356;81;21231;-78
2022/11/18 18:34:59;;;;;;;70.50;51.45;;;;;;;1.97;100.00;99706.02;1746307;81;21796;-78
2022/11/18 18:38:04;;;;;;;69.75;44.38;;;;;;;2.15;100.00;99703.52;1746377;80;21192;-78
2022/11/18 18:41:16;;;;;;;44.93;32.13;;;;;;;2.19;100.00;99704.95;1747691;80;21518;-78
2022/11/18 18:44:21;;;;;;;42.03;29.80;;;;;;;2.19;100.00;99710.36;1745733;81;21220;-78
2022/11/18 18:47:27;;;;;;;57.05;41.68;;;;;;;2.08;100.00;99711.33;1755180;81;21787;-77
2022/11/18 18:50:33;;;;;;;41.10;30.48;;;;;;;2.00;100.00;99699.00;1742867;80;21177;-77
2022/11/18 18:53:41;;;;;;;46.25;33.88;;;;;;;1.93;100.00;99705.45;1748751;81;21188;-78
2022/11/18 18:56:50;;;;;;;34.90;24.85;;;;;;;1.64;100.00;99708.48;1711104;82;21212;-79
2022/11/18 18:59:55;;;;;;;36.95;26.65;;;;;;;1.74;100.00;99702.64;1733381;82;21222;-78
2022/11/18 19:03:03;;;;;;;39.80;29.92;;;;;;;1.55;100.00;99684.53;1728755;82;21200;-79
2022/11/18 19:06:24;;;;;;;47.30;36.05;;;;;;;1.59;100.00;99698.60;1726951;82;21201;-79
2022/11/18 19:09:33;;;;;;;41.98;33.67;;;;;;;1.62;100.00;99691.61;1727112;81;21844;-80
2022/11/18 19:12:50;;;;;;;42.98;32.70;;;;;;;1.74;100.00;99678.38;1730750;82;21176;-79
2022/11/18 19:15:51;;;;;;;59.45;49.80;;;;;;;1.82;100.00;99669.62;1734570;82;21200;-78
2022/11/18 19:18:58;;;;;;;39.58;27.55;;;;;;;1.85;100.00;99681.00;1734342;82;21188;-78
2022/11/18 19:22:04;;;;;;;59.33;45.83;;;;;;;1.85;100.00;99692.28;1733569;81;21729;-79
2022/11/18 19:25:09;;;;;;;40.88;29.37;;;;;;;2.02;100.00;99697.89;1727245;81;21391;-78
2022/11/18 19:28:17;;;;;;;39.23;28.92;;;;;;;1.94;100.00;99702.26;1766271;80;21148;-77
2022/11/18 19:35:08;;;;;;;40.20;28.15;;;;;;;1.99;100.00;99728.33;1739179;79;21180;-81
2022/11/18 19:38:14;;;;;;;39.67;28.02;;;;;;;1.76;100.00;99735.23;1734455;81;21284;-81
2022/11/18 19:41:20;;;;;;;41.50;27.80;;;;;;;1.77;100.00;99732.05;1739746;80;21228;-80
2022/11/18 19:44:26;;;;;;;38.55;28.10;;;;;;;2.11;100.00;99716.92;1751277;80;21235;-80
2022/11/18 19:47:31;;;;;;;63.70;49.00;;;;;;;1.95;100.00;99715.59;1741542;81;21243;-79
2022/11/18 19:50:36;;;;;;;46.53;32.45;;;;;;;2.03;100.00;99702.79;1740519;81;21218;-80
2022/11/18 19:53:42;;;;;;;43.70;31.73;;;;;;;2.05;100.00;99708.89;1743615;81;21877;-81
2022/11/18 19:56:49;;;;;;;43.58;32.60;;;;;;;2.06;100.00;99689.00;1726255;80;21781;-80
2022/11/18 19:59:55;;;;;;;39.90;29.15;;;;;;;2.22;100.00;99697.95;1741701;80;21235;-80
2022/11/18 20:03:01;;;;;;;38.95;29.70;;;;;;;2.16;100.00;99672.84;1725071;80;21766;-81
2022/11/18 20:06:15;;;;;;;39.08;26.52;;;;;;;1.88;100.00;99682.55;1746742;81;21232;-80
2022/11/18 20:09:00;;;;;;;36.65;24.18;;;;;;;1.81;100.00;99689.49;1723144;81;21247;-81
2022/11/18 20:12:06;;;;;;;31.12;22.90;;;;;;;1.78;100.00;99687.41;1730169;81;21272;-81
2022/11/18 20:15:12;;;;;;;31.37;21.05;;;;;;;1.99;100.00;99686.52;1698396;81;21941;-81
2022/11/18 20:18:21;;;;;;;39.35;29.18;;;;;;;2.34;100.00;99700.02;1702595;83;21335;-81
2022/11/18 20:21:27;;;;;;;32.75;24.90;;;;;;;2.10;100.00;99701.73;1703297;83;21777;-81
2022/11/18 20:24:32;;;;;;;42.20;29.75;;;;;;;2.15;100.00;99714.31;1689450;83;21231;-80
2022/11/18 20:27:37;;;;;;;35.00;27.17;;;;;;;2.12;100.00;99719.97;1708218;83;21225;-81
2022/11/18 20:30:43;;;;;;;32.78;24.37;;;;;;;2.23;100.00;99719.39;1710344;82;21233;-81
2022/11/18 20:33:52;;;;;;;34.63;25.77;;;;;;;2.15;100.00;99713.81;1700994;82;21838;-81
2022/11/18 20:36:58;;;;;;;42.90;31.70;;;;;;;2.21;100.00;99724.08;1707705;82;21253;-81
2022/11/18 20:40:03;;;;;;;40.52;31.30;;;;;;;2.32;100.00;99719.56;1707347;82;21255;-81
2022/11/18 20:43:13;;;;;;;41.18;27.13;;;;;;;2.49;100.00;99703.55;1708796;83;21708;-80
2022/11/18 20:46:27;;;;;;;40.20;28.57;;;;;;;2.23;100.00;99715.34;1699694;82;21215;-81
2022/11/18 20:49:56;;;;;;;40.03;29.98;;;;;;;2.21;100.00;99706.55;1703034;82;21267;-81
2022/11/18 20:53:02;;;;;;;47.48;33.40;;;;;;;2.23;100.00;99698.30;1703539;82;21222;-81
2022/11/18 20:56:07;;;;;;;49.25;33.42;;;;;;;2.13;100.00;99706.37;1708316;83;21251;-81
2022/11/18 20:59:13;;;;;;;48.30;32.42;;;;;;;2.28;100.00;99703.64;1709915;82;21310;-80
2022/11/18 21:02:19;;;;;;;59.88;37.15;;;;;;;2.39;100.00;99691.86;1698725;83;21245;-81
2022/11/18 21:05:24;;;;;;;64.17;44.67;;;;;;;2.43;100.00;99687.05;1697276;82;21238;-81
2022/11/18 21:08:31;;;;;;;81.70;59.10;;;;;;;2.42;100.00;99667.80;1713672;82;21229;-80
2022/11/18 21:11:39;;;;;;;104.63;76.75;;;;;;;2.08;100.00;99665.96;1712184;83;21218;-81
2022/11/18 21:14:47;;;;;;;87.15;56.23;;;;;;;2.22;100.00;99675.86;1722980;82;21199;-80
2022/11/18 21:17:53;;;;;;;75.57;52.17;;;;;;;2.12;100.00;99684.91;1697455;83;21791;-80
2022/11/18 21:24:28;;;;;;;68.33;43.20;;;;;;;2.49;100.00;99689.17;1653784;85;21301;-81
2022/11/18 21:27:34;;;;;;;60.03;38.40;;;;;;;2.68;100.00;99683.83;1722639;82;21199;-81
2022/11/18 21:30:39;;;;;;;73.37;51.08;;;;;;;2.54;100.00;99668.01;1718903;82;21171;-81
2022/11/18 21:33:46;;;;;;;59.63;35.52;;;;;;;2.25;100.00;99642.33;1679892;84;21841;-80
2022/11/18 21:36:52;;;;;;;45.80;28.12;;;;;;;2.12;100.00;99656.10;1719458;82;21254;-81
2022/11/18 21:39:57;;;;;;;36.80;25.75;;;;;;;2.02;100.00;99636.31;1736508;81;21262;-81
2022/11/18 21:43:03;;;;;;;35.28;25.88;;;;;;;2.37;100.00;99644.42;1727811;81;21230;-81
2022/11/18 21:46:17;;;;;;;34.05;24.75;;;;;;;2.07;100.00;99658.36;1725959;82;21246;-81
2022/11/18 21:49:23;;;;;;;36.68;26.80;;;;;;;2.18;100.00;99664.13;1721729;82;21201;-81
2022/11/18 21:52:28;;;;;;;31.52;21.57;;;;;;;2.40;100.00;99640.08;1736441;80;21163;-80
2022/11/18 21:55:34;;;;;;;31.95;23.65;;;;;;;1.79;100.00;99641.95;1731982;80;21204;-80
2022/11/18 21:58:39;;;;;;;32.42;22.30;;;;;;;2.10;100.00;99623.50;1733827;80;21188;-80
2022/11/18 22:01:44;;;;;;;30.15;22.05;;;;;;;2.24;100.00;99627.99;1725017;81;21218;-81
2022/11/18 22:04:53;;;;;;;34.27;22.80;;;;;;;2.41;100.00;99610.77;1727828;80;21247;-81
2022/11/18 22:07:58;;;;;;;27.82;21.07;;;;;;;2.13;100.00;99592.20;1743485;82;21226;-81
2022/11/18 22:11:06;;;;;;;26.20;20.05;;;;;;;1.97;100.00;99604.86;1727142;80;21279;-81